Maria Desgagnes — VCWL — position and weather

sailwx.info

Track history (hours):
 
Tides and Currents Weather Stations Pressure Air Temp Water Temp Dewpoint Dewpoint Depression Visibility Wind Speed Wind Dir Waves Ship Positions

Maria Desgagnes

Last reported at 2016-Feb-04 01:25 UTC. Time now 2016-Feb-07 06:02 UTC.
Position N 49°05' W 058°14'.

Length 120 m; draft 7.8 m.

Type: Ship (hazmat cat A). MMSI: 316285000.

Date/timePositionNaut miles runAvg speedWind from/ knotsBaromVisibWave heightAir tempDewpointWater temp
2016-Feb-04 01:25N 49°05' W 058°14'1011.8
2016-Feb-04 00:33N 48°59' W 058°02'1 1.0
2016-Feb-03 23:33N 48°58' W 058°01'0 0.0
2016-Feb-03 22:33N 48°58' W 058°01'0 0.0
2016-Feb-03 21:33N 48°58' W 058°01'0 0.0
2016-Feb-03 20:30N 48°58' W 058°01'0 0.0
2016-Feb-03 19:30N 48°58' W 058°01'0 0.0
2016-Feb-03 18:30N 48°58' W 058°01'0 0.0
2016-Feb-03 17:30N 48°58' W 058°01'0 0.0
2016-Feb-03 16:27N 48°58' W 058°01'0 0.0
2016-Feb-03 15:24N 48°58' W 058°01'0 0.0
2016-Feb-03 14:30N 48°58' W 058°01'0 0.0
2016-Feb-03 13:30N 48°58' W 058°01'0 0.0
2016-Feb-03 12:30N 48°58' W 058°01'0 0.0
2016-Feb-03 11:30N 48°58' W 058°01'0 0.0
2016-Feb-03 10:30N 48°58' W 058°01'0 0.0
2016-Feb-03 09:33N 48°58' W 058°01'0 0.0
2016-Feb-03 08:31N 48°58' W 058°01'0 0.2
2016-Feb-03 07:33N 48°58' W 058°00'4 4.4
2016-Feb-03 06:34N 49°01' W 058°06'1313.1
2016-Feb-03 05:34N 49°09' W 058°21'  
2016-Jan-30 00:17N 46°28' W 072°15'1115.4
2016-Jan-29 23:33N 46°22' W 072°29'1010.4
2016-Jan-29 22:33N 46°16' W 072°41'1110.9
2016-Jan-29 21:31N 46°11' W 072°55'1 0.1
2016-Jan-28 19:30N 46°10' W 072°57'8 8.9
2016-Jan-28 18:33N 46°14' W 072°46'9 8.9
2016-Jan-28 17:33N 46°18' W 072°35'9 9.4
2016-Jan-28 16:33N 46°24' W 072°24'1010.1
2016-Jan-28 15:33N 46°31' W 072°13'  
2016-Jan-25 15:21N 49°10' W 058°23'1113.7
2016-Jan-25 14:34N 49°04' W 058°10'9 9.0
2016-Jan-25 13:33N 48°58' W 057°59'1 0.5
2016-Jan-25 12:33N 48°58' W 057°59'0 0.0
2016-Jan-25 11:33N 48°58' W 057°59'0 0.0
2016-Jan-25 10:33N 48°58' W 057°59'0 0.0
2016-Jan-25 09:33N 48°58' W 057°59'0 0.0
2016-Jan-25 08:33N 48°58' W 057°59'0 0.0
2016-Jan-25 07:33N 48°58' W 057°59'0 0.0
2016-Jan-25 06:33N 48°58' W 057°59'0 0.0
2016-Jan-25 05:33N 48°58' W 057°59'0 0.0
2016-Jan-25 04:33N 48°58' W 057°59'0 0.0
2016-Jan-25 03:33N 48°58' W 057°59'0 0.0
2016-Jan-25 02:33N 48°58' W 057°59'0 0.1
2016-Jan-25 01:33N 48°58' W 057°59'  
Track history (hours):
 
Tides and Currents Weather Stations Pressure Air Temp Water Temp Dewpoint Dewpoint Depression Visibility Wind Speed Wind Dir Waves Ship Positions

Maria Desgagnes

Last reported at 2016-Feb-04 01:25 UTC. Time now 2016-Feb-07 06:02 UTC.
Position N 49°05' W 058°14'.

Length 120 m; draft 7.8 m.

Type: Ship (hazmat cat A). MMSI: 316285000.

Date/timePositionNaut miles runAvg speedWind from/ knotsBaromVisibWave heightAir tempDewpointWater temp
2016-Feb-04 01:25N 49°05' W 058°14'1011.8
2016-Feb-04 00:33N 48°59' W 058°02'1 1.0
2016-Feb-03 23:33N 48°58' W 058°01'0 0.0
2016-Feb-03 22:33N 48°58' W 058°01'0 0.0
2016-Feb-03 21:33N 48°58' W 058°01'0 0.0
2016-Feb-03 20:30N 48°58' W 058°01'0 0.0
2016-Feb-03 19:30N 48°58' W 058°01'0 0.0
2016-Feb-03 18:30N 48°58' W 058°01'0 0.0
2016-Feb-03 17:30N 48°58' W 058°01'0 0.0
2016-Feb-03 16:27N 48°58' W 058°01'0 0.0
2016-Feb-03 15:24N 48°58' W 058°01'0 0.0
2016-Feb-03 14:30N 48°58' W 058°01'0 0.0
2016-Feb-03 13:30N 48°58' W 058°01'0 0.0
2016-Feb-03 12:30N 48°58' W 058°01'0 0.0
2016-Feb-03 11:30N 48°58' W 058°01'0 0.0
2016-Feb-03 10:30N 48°58' W 058°01'0 0.0
2016-Feb-03 09:33N 48°58' W 058°01'0 0.0
2016-Feb-03 08:31N 48°58' W 058°01'0 0.2
2016-Feb-03 07:33N 48°58' W 058°00'4 4.4
2016-Feb-03 06:34N 49°01' W 058°06'1313.1
2016-Feb-03 05:34N 49°09' W 058°21'  
2016-Jan-30 00:17N 46°28' W 072°15'1115.4
2016-Jan-29 23:33N 46°22' W 072°29'1010.4
2016-Jan-29 22:33N 46°16' W 072°41'1110.9
2016-Jan-29 21:31N 46°11' W 072°55'1 0.1
2016-Jan-28 19:30N 46°10' W 072°57'8 8.9
2016-Jan-28 18:33N 46°14' W 072°46'9 8.9
2016-Jan-28 17:33N 46°18' W 072°35'9 9.4
2016-Jan-28 16:33N 46°24' W 072°24'1010.1
2016-Jan-28 15:33N 46°31' W 072°13'  
2016-Jan-25 15:21N 49°10' W 058°23'1113.7
2016-Jan-25 14:34N 49°04' W 058°10'9 9.0
2016-Jan-25 13:33N 48°58' W 057°59'1 0.5
2016-Jan-25 12:33N 48°58' W 057°59'0 0.0
2016-Jan-25 11:33N 48°58' W 057°59'0 0.0
2016-Jan-25 10:33N 48°58' W 057°59'0 0.0
2016-Jan-25 09:33N 48°58' W 057°59'0 0.0
2016-Jan-25 08:33N 48°58' W 057°59'0 0.0
2016-Jan-25 07:33N 48°58' W 057°59'0 0.0
2016-Jan-25 06:33N 48°58' W 057°59'0 0.0
2016-Jan-25 05:33N 48°58' W 057°59'0 0.0
2016-Jan-25 04:33N 48°58' W 057°59'0 0.0
2016-Jan-25 03:33N 48°58' W 057°59'0 0.0
2016-Jan-25 02:33N 48°58' W 057°59'0 0.1
2016-Jan-25 01:33N 48°58' W 057°59'  

Dump ship's entire track history